• Join FlightAware (Why Join?)
  • Login
  • US Flag 
08:52PM EDT


 

Airport Tracker/Info


-or-


 

Live Flight TrackerFlight Track Log ✈ SWA187 ✈ 12-Apr-2012 ✈ KABQ - KMAF

Flight Track Log - Related Links

Times and Time Zones

All times are in EDT time to prevent confusion due to time zone crossing. See the SWA187 flight status page for this flight to view local times or setup timezone preferences in your user account.

Time Position Orientation Groundspeed Altitude Reporting Facility
EDT Latitude Longitude Course Direction KTS MPH feet Rate Location/Type
10:31PM 35.0106 -106.6408 216° Southwest 166 191 6,600  Level Albuquerque Center
10:32PM 34.9586 -106.6869 182° South 215 247 9,000 2,400 Climbing Albuquerque Center
10:33PM 34.8983 -106.6900 133° Southeast 225 259 11,700 3,120 Climbing Albuquerque Center
10:34PM 34.8350 -106.6069 120° Southeast 245 282 15,200 2,700 Climbing Albuquerque Center
10:35PM 34.7822 -106.4964 121° Southeast 310 357 17,200 2,520 Climbing Albuquerque Center
10:36PM 34.7292 -106.3908 128° Southeast 372 428 20,300 3,060 Climbing Albuquerque Center
10:37PM 34.6594 -106.2806 128° Southeast 415 478 23,400 2,520 Climbing Albuquerque Center
10:38PM 34.5811 -106.1603 127° Southeast 439 505 25,400 2,220 Climbing Albuquerque Center
10:39PM 34.5003 -106.0306 129° Southeast 439 505 27,900 2,100 Climbing Albuquerque Center
10:40PM 34.4156 -105.9036 127° Southeast 462 532 29,600 1,500 Climbing Albuquerque Center
10:41PM 34.3389 -105.7792 128° Southeast 473 544 31,000 660 Climbing Albuquerque Center
10:42PM 34.2536 -105.6475 126° Southeast 486 559 31,000  Level Albuquerque Center
10:43PM 34.1786 -105.5236 128° Southeast 473 544 31,000  Level Albuquerque Center
10:44PM 34.0975 -105.4000 129° Southeast 468 539 31,000  Level Albuquerque Center
10:45PM 34.0139 -105.2742 129° Southeast 470 541 31,000  Level Albuquerque Center
10:46PM 33.9325 -105.1536 127° Southeast 475 547 31,000  Level Albuquerque Center
10:47PM 33.8572 -105.0331 128° Southeast 487 560 31,000  Level Albuquerque Center
10:48PM 33.7667 -104.8958 128° Southeast 480 552 31,000  Level Albuquerque Center
10:49PM 33.6933 -104.7831 129° Southeast 480 552 31,000  Level Albuquerque Center
10:50PM 33.6028 -104.6486 130° Southeast 473 544 31,000 -60 Level Albuquerque Center
10:51PM 33.5186 -104.5269 127° Southeast 473 544 30,900 -300 Descending Albuquerque Center
10:52PM 33.4469 -104.4122 129° Southeast 473 544 30,400 -540 Descending Albuquerque Center
10:53PM 33.3581 -104.2786 129° Southeast 478 550 29,900 -480 Descending Albuquerque Center
10:54PM 33.2867 -104.1719 128° Southeast 472 543 29,500 -420 Descending Albuquerque Center
10:56PM 33.1233 -103.9239 128° Southeast 456 525 28,600 -480 Descending Fort Worth Center
10:57PM 33.0442 -103.8017 129° Southeast 456 525 28,100 -540 Descending Fort Worth Center
10:58PM 32.9664 -103.6869 128° Southeast 456 525 27,600 -540 Descending Fort Worth Center
10:59PM 32.8908 -103.5731 131° Southeast 451 519 27,100 -540 Descending Fort Worth Center
11:00PM 32.8086 -103.4586 129° Southeast 445 512 26,600 -540 Descending Fort Worth Center
11:01PM 32.7228 -103.3319 129° Southeast 450 518 26,100 -480 Descending Fort Worth Center
11:02PM 32.6428 -103.2156 129° Southeast 450 518 25,700 -1,320 Descending Fort Worth Center
11:03PM 32.5664 -103.1022 130° Southeast 445 512 23,500 -2,520 Descending Fort Worth Center
11:04PM 32.4881 -102.9914 129° Southeast 434 499 20,700 -2,880 Descending Fort Worth Center
11:05PM 32.4156 -102.8861 128° Southeast 423 487 17,800 -2,820 Descending Fort Worth Center
11:06PM 32.3469 -102.7836 130° Southeast 412 474 15,100 -2,520 Descending Fort Worth Center
11:07PM 32.2778 -102.6861 125° Southeast 398 458 12,800 -2,040 Descending Fort Worth Center
11:08PM 32.2214 -102.5894 125° Southeast 375 432 11,100 -1,380 Descending Fort Worth Center
11:09PM 32.1706 -102.5033 122° Southeast 339 390 10,100 -1,500 Descending Fort Worth Center
11:10PM 32.1300 -102.4275 119° Southeast 312 359 8,200 -1,800 Descending Fort Worth Center
11:11PM 32.0914 -102.3467 78° East 301 346 6,500 -1,200 Descending Fort Worth Center
11:12PM 32.1072 -102.2569 144° Southeast 267 307 5,900 -720 Descending Fort Worth Center
11:13PM 32.0650 -102.2203 172° South 200 230 5,100 -900 Descending Fort Worth Center
11:14PM 32.0233 -102.2133 174° South 161 185 4,200 -900 Descending Fort Worth Center
11:15PM 31.9881 -102.2089 168° South 144 166 3,300 -660 Descending Fort Worth Center
11:16PM 31.9489 -102.1994 168° South 138 159 2,900 -420 Descending Fort Worth Center